Time;durP1;ratioP1;P1;durP2;ratioP2;P2;SDS_P1;SDS_P2;PMS_P1;PMS_P2;Temp;Humidity;BMP_temperature;BMP_pressure;BME280_temperature;BME280_humidity;BME280_pressure;Samples;Min_cycle;Max_cycle;Signal;HPM_P1;HPM_P2
2024/01/02 00:00:37;;;;;;;0.68;0.68;;;;;;;6.93;100.00;97751.56;4175613;28;20271;-53
2024/01/02 00:02:39;;;;;;;0.80;0.80;;;;;;;6.87;100.00;97752.53;4168538;28;20203;-51
2024/01/02 00:04:41;;;;;;;1.83;1.67;;;;;;;6.89;100.00;97747.69;4175171;28;20208;-53
2024/01/02 00:06:42;;;;;;;0.77;0.77;;;;;;;6.91;100.00;97740.94;4170647;28;20551;-54
2024/01/02 00:08:44;;;;;;;0.80;0.80;;;;;;;6.88;100.00;97737.91;4165550;28;20275;-53
2024/01/02 00:10:46;;;;;;;0.95;0.95;;;;;;;6.88;100.00;97732.47;4168294;28;20248;-53
2024/01/02 00:12:47;;;;;;;1.05;1.00;;;;;;;6.82;100.00;97722.56;4167108;28;20201;-54
2024/01/02 00:14:51;;;;;;;1.08;1.08;;;;;;;6.81;100.00;97715.44;4175504;28;20208;-51
2024/01/02 00:16:53;;;;;;;0.77;0.77;;;;;;;6.82;100.00;97719.84;4169653;28;20257;-54
2024/01/02 00:18:54;;;;;;;0.75;0.75;;;;;;;6.74;100.00;97706.63;4170652;28;20232;-51
2024/01/02 00:20:56;;;;;;;2.03;1.85;;;;;;;6.74;100.00;97712.06;4168344;28;20283;-53
2024/01/02 00:22:58;;;;;;;1.67;0.95;;;;;;;6.69;100.00;97701.13;4166500;28;20216;-53
2024/01/02 00:25:00;;;;;;;1.45;1.38;;;;;;;6.69;100.00;97701.13;4167176;28;20212;-55
2024/01/02 00:27:02;;;;;;;0.85;0.85;;;;;;;6.74;100.00;97695.75;4170758;28;20230;-56
2024/01/02 00:29:04;;;;;;;0.90;0.90;;;;;;;6.71;100.00;97702.53;4171606;28;20283;-52
2024/01/02 00:31:07;;;;;;;0.98;0.98;;;;;;;6.74;100.00;97676.72;4176983;28;20697;-54
2024/01/02 00:33:09;;;;;;;1.00;1.00;;;;;;;6.71;100.00;97677.22;4153248;28;20212;-53
2024/01/02 00:35:11;;;;;;;7.88;1.13;;;;;;;6.73;100.00;97685.97;4167735;28;20208;-52
2024/01/02 00:37:12;;;;;;;1.65;1.55;;;;;;;6.72;100.00;97665.28;4171147;28;20282;-52
2024/01/02 00:39:15;;;;;;;0.80;0.80;;;;;;;6.72;100.00;97662.56;4171294;28;20229;-51
2024/01/02 00:41:16;;;;;;;1.27;1.15;;;;;;;6.71;100.00;97655.50;4171121;28;20568;-50
2024/01/02 00:43:18;;;;;;;1.10;1.10;;;;;;;6.68;100.00;97645.13;4172023;28;20580;-51
2024/01/02 00:45:20;;;;;;;1.00;1.00;;;;;;;6.65;100.00;97651.88;4173487;28;20665;-51
2024/01/02 00:47:22;;;;;;;1.45;0.80;;;;;;;6.67;100.00;97638.00;4174457;28;20212;-50
2024/01/02 00:49:24;;;;;;;0.80;0.80;;;;;;;6.67;100.00;97632.56;4170388;28;20220;-50
2024/01/02 00:51:26;;;;;;;0.80;0.80;;;;;;;6.71;100.00;97631.88;4167813;28;20228;-51
2024/01/02 00:53:27;;;;;;;1.13;1.13;;;;;;;6.72;100.00;97630.78;4168446;28;20208;-53
2024/01/02 00:55:29;;;;;;;1.08;1.08;;;;;;;6.71;100.00;97628.31;4173160;28;20212;-51
2024/01/02 00:57:31;;;;;;;0.90;0.90;;;;;;;6.66;100.00;97626.34;4166071;28;20212;-51
2024/01/02 00:59:33;;;;;;;0.65;0.60;;;;;;;6.71;100.00;97633.75;4169118;28;20278;-51
2024/01/02 01:01:35;;;;;;;0.80;0.80;;;;;;;6.69;100.00;97625.03;4174732;28;20574;-51
2024/01/02 01:03:37;;;;;;;0.70;0.70;;;;;;;6.72;100.00;97619.06;4156058;28;20264;-50
2024/01/02 01:05:39;;;;;;;1.20;0.95;;;;;;;6.68;100.00;97598.91;4171304;28;20227;-50
2024/01/02 01:07:41;;;;;;;1.20;1.20;;;;;;;6.73;100.00;97596.25;4165882;28;20334;-50
2024/01/02 01:09:43;;;;;;;1.25;1.10;;;;;;;6.74;100.00;97601.44;4170786;28;20228;-50
2024/01/02 01:11:44;;;;;;;0.85;0.85;;;;;;;6.74;100.00;97616.91;4170089;28;20274;-51
2024/01/02 01:13:46;;;;;;;2.78;0.68;;;;;;;6.77;100.00;97590.06;4167654;28;20687;-51
2024/01/02 01:15:48;;;;;;;1.00;1.00;;;;;;;6.75;100.00;97603.09;4153882;28;21045;-50
2024/01/02 01:17:49;;;;;;;0.80;0.80;;;;;;;6.71;100.00;97599.25;4168704;28;20208;-50
2024/01/02 01:19:51;;;;;;;0.80;0.80;;;;;;;6.73;100.00;97588.09;4173751;28;20228;-50
2024/01/02 01:21:53;;;;;;;1.30;1.20;;;;;;;6.73;100.00;97599.81;4165583;28;20254;-50
2024/01/02 01:23:55;;;;;;;0.88;0.88;;;;;;;6.75;100.00;97589.50;4168231;28;20261;-50
2024/01/02 01:25:57;;;;;;;0.85;0.85;;;;;;;6.74;100.00;97582.41;4151645;28;20263;-50
2024/01/02 01:27:59;;;;;;;0.70;0.70;;;;;;;6.78;100.00;97572.72;4164950;28;20216;-50
2024/01/02 01:30:01;;;;;;;1.85;1.75;;;;;;;6.81;100.00;97580.34;4168103;28;20292;-49
2024/01/02 01:32:03;;;;;;;0.70;0.70;;;;;;;6.76;100.00;97565.88;4175306;28;21104;-50
2024/01/02 01:34:04;;;;;;;0.68;0.68;;;;;;;6.78;100.00;97570.00;4171332;28;20682;-51
2024/01/02 01:36:06;;;;;;;0.90;0.90;;;;;;;6.73;100.00;97560.91;4171349;28;20226;-50
2024/01/02 01:38:08;;;;;;;3.75;1.00;;;;;;;6.71;100.00;97557.63;4175824;28;20215;-52
2024/01/02 01:40:10;;;;;;;0.80;0.80;;;;;;;6.67;100.00;97540.16;4171926;28;20641;-50
2024/01/02 01:42:12;;;;;;;0.82;0.82;;;;;;;6.72;100.00;97538.38;4165588;28;20230;-50
2024/01/02 01:44:13;;;;;;;1.08;1.08;;;;;;;6.70;100.00;97550.56;4167584;28;20273;-51
2024/01/02 01:46:15;;;;;;;0.60;0.60;;;;;;;6.73;100.00;97540.00;4167009;28;20220;-50
2024/01/02 01:48:17;;;;;;;0.73;0.73;;;;;;;6.67;100.00;97535.56;4166965;28;20303;-50
2024/01/02 01:50:19;;;;;;;0.88;0.88;;;;;;;6.70;100.00;97536.97;4167069;28;20204;-50
2024/01/02 01:52:21;;;;;;;0.95;0.90;;;;;;;6.66;100.00;97527.66;4149298;28;20285;-51
2024/01/02 01:54:23;;;;;;;0.60;0.60;;;;;;;6.66;100.00;97533.94;4198896;28;20256;-52
2024/01/02 01:56:25;;;;;;;1.65;0.85;;;;;;;6.65;100.00;97521.41;4161457;28;20208;-50
2024/01/02 01:58:27;;;;;;;0.70;0.70;;;;;;;6.65;100.00;97510.53;4165976;28;20209;-49
2024/01/02 02:00:29;;;;;;;0.88;0.88;;;;;;;6.67;100.00;97502.13;4146723;28;21253;-51
2024/01/02 02:02:32;;;;;;;0.93;0.93;;;;;;;6.65;100.00;97499.66;4161752;28;20204;-50
2024/01/02 02:04:36;;;;;;;0.60;0.60;;;;;;;6.66;100.00;97495.03;4170679;28;20237;-52
2024/01/02 02:06:37;;;;;;;1.05;1.05;;;;;;;6.67;100.00;97481.22;4163874;28;20214;-53
2024/01/02 02:08:39;;;;;;;0.90;0.90;;;;;;;6.66;100.00;97486.88;4165828;28;20266;-50
2024/01/02 02:10:41;;;;;;;0.95;0.95;;;;;;;6.64;100.00;97491.75;4156694;28;20323;-52
2024/01/02 02:12:43;;;;;;;0.70;0.70;;;;;;;6.61;100.00;97481.38;4164490;28;20215;-50
2024/01/02 02:14:44;;;;;;;0.80;0.80;;;;;;;6.63;100.00;97476.53;4168041;28;20213;-51
2024/01/02 02:17:00;;;;;;;0.88;0.88;;;;;;;6.65;100.00;97461.63;4166919;28;20204;-51
2024/01/02 02:19:02;;;;;;;1.10;1.10;;;;;;;6.63;100.00;97462.94;4166987;28;20228;-51
2024/01/02 02:21:04;;;;;;;0.65;0.65;;;;;;;6.64;100.00;97459.97;4169222;28;20258;-51
2024/01/02 02:23:06;;;;;;;0.90;0.90;;;;;;;6.60;100.00;97436.25;4164842;28;20259;-52
2024/01/02 02:25:08;;;;;;;0.80;0.80;;;;;;;6.61;100.00;97421.56;4174707;28;20251;-51
2024/01/02 02:27:10;;;;;;;0.73;0.73;;;;;;;6.60;100.00;97414.50;4168511;28;20208;-51
2024/01/02 02:29:12;;;;;;;0.98;0.98;;;;;;;6.55;100.00;97396.25;4166701;28;20228;-50
2024/01/02 02:31:17;;;;;;;1.38;0.80;;;;;;;6.59;100.00;97396.56;4163942;28;20236;-51
2024/01/02 02:33:18;;;;;;;0.63;0.63;;;;;;;6.57;100.00;97393.28;4168607;28;20654;-51
2024/01/02 02:35:20;;;;;;;0.70;0.70;;;;;;;6.60;100.00;97387.34;4157684;28;20256;-51
2024/01/02 02:37:22;;;;;;;1.00;1.00;;;;;;;6.66;100.00;97379.00;4166376;28;20332;-50
2024/01/02 02:39:24;;;;;;;0.70;0.70;;;;;;;6.61;100.00;97351.75;4170382;28;20231;-50
2024/01/02 02:41:25;;;;;;;0.60;0.60;;;;;;;6.69;100.00;97358.66;4172538;28;20205;-50
2024/01/02 02:43:27;;;;;;;0.70;0.70;;;;;;;6.66;100.00;97353.72;4169894;28;20203;-51
2024/01/02 02:45:29;;;;;;;0.80;0.80;;;;;;;6.69;100.00;97339.63;4175327;28;20260;-52
2024/01/02 02:47:30;;;;;;;1.90;0.70;;;;;;;6.68;100.00;97329.84;4172037;28;20220;-51
2024/01/02 02:49:33;;;;;;;0.57;0.57;;;;;;;6.67;100.00;97337.16;4173001;28;20228;-52
2024/01/02 02:51:34;;;;;;;0.80;0.80;;;;;;;6.75;100.00;97322.31;4172336;28;20626;-51
2024/01/02 02:53:36;;;;;;;0.68;0.68;;;;;;;6.73;100.00;97321.72;4171355;28;20224;-52
2024/01/02 02:55:38;;;;;;;0.75;0.75;;;;;;;6.75;100.00;97314.16;4174893;28;20208;-52
2024/01/02 02:57:39;;;;;;;0.75;0.75;;;;;;;6.78;100.00;97313.63;4178003;28;20235;-51
2024/01/02 02:59:41;;;;;;;0.90;0.90;;;;;;;6.78;100.00;97319.06;4173860;28;20768;-52
2024/01/02 03:01:43;;;;;;;0.77;0.77;;;;;;;6.80;100.00;97317.72;4168203;28;20204;-50
2024/01/02 03:03:44;;;;;;;0.80;0.80;;;;;;;6.85;100.00;97308.81;4174152;28;20267;-52
2024/01/02 03:05:46;;;;;;;0.73;0.73;;;;;;;6.87;100.00;97298.50;4172177;28;20664;-51
2024/01/02 03:07:48;;;;;;;0.90;0.90;;;;;;;6.88;100.00;97297.44;4167599;28;20215;-52
2024/01/02 03:09:50;;;;;;;0.85;0.85;;;;;;;6.92;100.00;97293.94;4170305;28;20655;-51
2024/01/02 03:11:51;;;;;;;0.70;0.70;;;;;;;6.98;100.00;97292.91;4167479;28;20240;-50
2024/01/02 03:13:53;;;;;;;1.60;1.35;;;;;;;6.95;100.00;97287.19;4153299;28;20217;-51
2024/01/02 03:15:55;;;;;;;0.60;0.60;;;;;;;6.95;100.00;97293.41;4172483;28;20303;-50
2024/01/02 03:17:57;;;;;;;0.80;0.80;;;;;;;6.96;100.00;97273.28;4159254;28;20705;-51
2024/01/02 03:19:59;;;;;;;0.65;0.65;;;;;;;6.99;100.00;97261.09;4175569;28;20228;-50
2024/01/02 03:22:01;;;;;;;1.00;1.00;;;;;;;7.03;100.00;97249.44;4171313;28;20206;-51
2024/01/02 03:24:03;;;;;;;0.90;0.90;;;;;;;7.00;100.00;97244.53;4171350;28;20228;-50
2024/01/02 03:26:05;;;;;;;0.70;0.70;;;;;;;7.05;100.00;97238.31;4170730;28;20204;-50
2024/01/02 03:28:07;;;;;;;0.90;0.90;;;;;;;7.09;100.00;97258.47;4170204;28;20258;-49
2024/01/02 03:30:10;;;;;;;0.80;0.80;;;;;;;7.12;100.00;97244.34;4176315;28;20223;-51
2024/01/02 03:32:12;;;;;;;0.70;0.70;;;;;;;7.10;100.00;97236.44;4159247;28;20706;-50
2024/01/02 03:34:13;;;;;;;0.77;0.77;;;;;;;7.07;100.00;97222.53;4174338;28;20208;-50
2024/01/02 03:36:20;;;;;;;0.70;0.70;;;;;;;7.01;100.00;97216.25;4167707;28;20230;-50
2024/01/02 03:38:21;;;;;;;0.77;0.77;;;;;;;7.03;100.00;97241.28;4176083;28;20250;-50
2024/01/02 03:40:23;;;;;;;0.60;0.60;;;;;;;7.05;100.00;97244.56;4176214;28;20242;-50
2024/01/02 03:42:25;;;;;;;0.75;0.75;;;;;;;7.07;100.00;97223.38;4173645;28;20211;-51
2024/01/02 03:44:27;;;;;;;0.70;0.70;;;;;;;7.07;100.00;97198.06;4167440;28;20208;-50
2024/01/02 03:46:29;;;;;;;0.80;0.80;;;;;;;7.07;100.00;97203.50;4170180;28;20701;-50
2024/01/02 03:48:30;;;;;;;0.70;0.70;;;;;;;7.07;100.00;97198.06;4171210;28;20208;-51
2024/01/02 03:50:32;;;;;;;0.63;0.63;;;;;;;7.09;100.00;97217.69;4167848;28;20205;-51
2024/01/02 03:52:34;;;;;;;0.65;0.65;;;;;;;7.09;100.00;97206.81;4167084;28;20228;-50
2024/01/02 03:54:36;;;;;;;0.70;0.70;;;;;;;7.13;100.00;97203.31;4169408;28;20210;-51
2024/01/02 03:56:37;;;;;;;0.80;0.80;;;;;;;7.11;100.00;97193.75;4167540;28;20249;-50
2024/01/02 03:58:39;;;;;;;0.70;0.70;;;;;;;7.13;100.00;97175.28;4169528;28;20290;-50
2024/01/02 04:00:41;;;;;;;0.80;0.80;;;;;;;7.16;100.00;97180.22;4167694;28;20204;-50
2024/01/02 04:02:43;;;;;;;0.85;0.85;;;;;;;7.21;100.00;97166.66;4170279;28;20823;-49
2024/01/02 04:04:45;;;;;;;0.75;0.75;;;;;;;7.16;100.00;97164.69;4171330;28;20204;-50
2024/01/02 04:06:47;;;;;;;1.20;1.20;;;;;;;7.20;100.00;97165.81;4169662;28;20929;-51
2024/01/02 04:08:49;;;;;;;0.88;0.88;;;;;;;7.23;100.00;97175.34;4166401;28;20279;-51
2024/01/02 04:10:51;;;;;;;0.70;0.70;;;;;;;7.20;100.00;97140.50;4164110;28;20843;-51
2024/01/02 04:12:53;;;;;;;0.70;0.70;;;;;;;7.22;100.00;97154.69;4168035;28;20236;-50
2024/01/02 04:14:58;;;;;;;0.70;0.70;;;;;;;7.23;100.00;97138.06;4167354;28;20208;-50
2024/01/02 04:17:00;;;;;;;0.95;0.95;;;;;;;7.21;100.00;97126.66;4167379;28;20304;-51
2024/01/02 04:19:02;;;;;;;0.60;0.60;;;;;;;7.21;100.00;97129.38;4169454;28;20325;-50
2024/01/02 04:21:04;;;;;;;0.60;0.60;;;;;;;7.21;100.00;97123.94;4166602;28;20323;-50
2024/01/02 04:23:07;;;;;;;0.75;0.75;;;;;;;7.25;100.00;97135.09;4165857;28;20246;-50
2024/01/02 04:25:09;;;;;;;0.80;0.80;;;;;;;7.23;100.00;97127.19;4174332;28;20208;-49
2024/01/02 04:27:11;;;;;;;0.95;0.80;;;;;;;7.23;100.00;97115.50;4168040;28;20212;-48
2024/01/02 04:29:13;;;;;;;0.52;0.52;;;;;;;7.26;100.00;97109.53;4166469;28;20235;-51
2024/01/02 04:31:14;;;;;;;0.77;0.77;;;;;;;7.24;100.00;97111.72;4169064;28;20664;-49
2024/01/02 04:33:16;;;;;;;1.00;1.00;;;;;;;7.23;100.00;97115.50;4174750;28;20203;-50
2024/01/02 04:35:18;;;;;;;1.00;1.00;;;;;;;7.23;100.00;97104.63;4169856;28;20204;-52
2024/01/02 04:37:20;;;;;;;0.70;0.70;;;;;;;7.24;100.00;97100.81;4176272;28;20288;-50
2024/01/02 04:39:22;;;;;;;0.68;0.68;;;;;;;7.25;100.00;97097.03;4171161;28;20235;-50
2024/01/02 04:41:24;;;;;;;0.80;0.80;;;;;;;7.26;100.00;97094.03;4167582;28;20200;-50
2024/01/02 04:43:29;;;;;;;0.80;0.80;;;;;;;7.24;100.00;97100.81;4171561;28;20219;-50
2024/01/02 04:45:30;;;;;;;0.95;0.95;;;;;;;7.28;100.00;97096.50;4171813;28;20603;-50
2024/01/02 04:47:32;;;;;;;0.90;0.90;;;;;;;7.28;100.00;97089.16;4169119;28;20226;-49
2024/01/02 04:49:34;;;;;;;0.70;0.70;;;;;;;7.25;100.00;97092.41;4169294;28;20688;-49
2024/01/02 04:51:37;;;;;;;0.70;0.70;;;;;;;7.25;100.00;97091.56;4168887;28;20285;-49
2024/01/02 04:53:40;;;;;;;0.77;0.77;;;;;;;7.28;100.00;97089.16;4156834;28;20287;-50
2024/01/02 04:55:41;;;;;;;0.68;0.68;;;;;;;7.25;100.00;97081.53;4178744;28;20775;-49
2024/01/02 04:57:43;;;;;;;0.88;0.88;;;;;;;7.25;100.00;97081.53;4176308;28;20713;-50
2024/01/02 04:59:48;;;;;;;1.27;1.17;;;;;;;7.29;100.00;97069.00;4171707;28;20228;-50
2024/01/02 05:01:50;;;;;;;0.70;0.70;;;;;;;7.34;100.00;97076.38;4168439;28;20335;-50
2024/01/02 05:03:52;;;;;;;0.70;0.70;;;;;;;7.36;100.00;97069.59;4169475;28;20579;-49
2024/01/02 05:05:53;;;;;;;0.70;0.70;;;;;;;7.33;100.00;97072.84;4171687;28;20303;-50
2024/01/02 05:07:55;;;;;;;0.80;0.80;;;;;;;7.41;100.00;97047.06;4166732;28;20212;-50
2024/01/02 05:09:57;;;;;;;1.15;1.15;;;;;;;7.42;100.00;97032.38;4169813;28;20316;-49
2024/01/02 05:11:59;;;;;;;0.60;0.60;;;;;;;7.41;100.00;97036.19;4168066;28;20231;-50
2024/01/02 05:14:00;;;;;;;0.80;0.80;;;;;;;7.43;100.00;97023.13;4153527;28;20247;-50
2024/01/02 05:16:02;;;;;;;0.70;0.70;;;;;;;7.40;100.00;97031.78;4178100;28;20243;-48
2024/01/02 05:18:04;;;;;;;0.80;0.80;;;;;;;7.42;100.00;97026.91;4170419;28;20624;-49
2024/01/02 05:20:07;;;;;;;0.75;0.75;;;;;;;7.40;100.00;97031.78;4171856;28;20220;-48
2024/01/02 05:22:08;;;;;;;0.80;0.80;;;;;;;7.42;100.00;97027.72;4170063;28;20775;-50
2024/01/02 05:24:10;;;;;;;0.80;0.80;;;;;;;7.44;100.00;97013.84;4169723;28;20287;-49
2024/01/02 05:26:12;;;;;;;0.60;0.60;;;;;;;7.47;100.00;97029.63;4164508;28;20212;-49
2024/01/02 05:28:13;;;;;;;0.85;0.85;;;;;;;7.47;100.00;97029.63;4166964;28;20750;-50
2024/01/02 05:30:15;;;;;;;0.60;0.60;;;;;;;7.55;100.00;97048.19;4165891;28;20598;-49
2024/01/02 05:32:17;;;;;;;0.80;0.80;;;;;;;7.54;100.00;97038.38;4171857;28;20609;-50
2024/01/02 05:34:19;;;;;;;0.80;0.80;;;;;;;7.54;100.00;97030.19;4172898;28;20250;-50
2024/01/02 05:36:21;;;;;;;0.90;0.90;;;;;;;7.57;100.00;97018.81;4169354;28;20208;-51
2024/01/02 05:38:23;;;;;;;0.73;0.73;;;;;;;7.57;100.00;97024.25;4172794;28;20216;-49
2024/01/02 05:40:24;;;;;;;1.08;1.08;;;;;;;7.54;100.00;97036.47;4167931;28;20262;-49
2024/01/02 05:42:26;;;;;;;0.65;0.65;;;;;;;7.55;100.00;97032.66;4168155;28;20299;-49
2024/01/02 05:44:28;;;;;;;0.80;0.80;;;;;;;7.56;100.00;97023.41;4157754;28;20227;-50
2024/01/02 05:46:30;;;;;;;0.73;0.73;;;;;;;7.59;100.00;97022.06;4164976;28;20223;-50
2024/01/02 05:48:31;;;;;;;0.63;0.63;;;;;;;7.59;100.00;97043.84;4176465;28;20234;-49
2024/01/02 05:50:33;;;;;;;0.60;0.60;;;;;;;7.56;100.00;96998.13;4163124;28;20606;-50
2024/01/02 05:52:35;;;;;;;0.80;0.80;;;;;;;7.59;100.00;97020.16;4167353;28;20228;-49
2024/01/02 05:54:40;;;;;;;0.70;0.70;;;;;;;7.58;100.00;97015.00;4167592;28;20212;-50
2024/01/02 05:56:43;;;;;;;0.75;0.75;;;;;;;7.63;100.00;97002.19;4165087;28;20209;-49
2024/01/02 05:58:45;;;;;;;0.80;0.80;;;;;;;7.62;100.00;97021.53;4165900;28;20231;-48
2024/01/02 06:00:46;;;;;;;1.05;1.05;;;;;;;7.62;100.00;97014.19;4165941;28;20648;-49
2024/01/02 06:02:48;;;;;;;0.75;0.75;;;;;;;7.62;100.00;97024.28;4167495;28;20205;-51
2024/01/02 06:04:50;;;;;;;0.70;0.70;;;;;;;7.58;100.00;97025.88;4166002;28;20211;-50
2024/01/02 06:06:52;;;;;;;0.80;0.80;;;;;;;7.60;100.00;96991.88;4166120;28;20217;-49
2024/01/02 06:08:53;;;;;;;0.70;0.70;;;;;;;7.61;100.00;97009.81;4167080;28;20238;-50
2024/01/02 06:10:56;;;;;;;0.70;0.70;;;;;;;7.57;100.00;97007.91;4157441;28;20274;-49
2024/01/02 06:12:57;;;;;;;0.82;0.82;;;;;;;7.58;100.00;97015.00;4165952;28;20230;-49
2024/01/02 06:14:59;;;;;;;0.77;0.77;;;;;;;7.60;100.00;97012.81;4165525;28;20274;-50
2024/01/02 06:17:04;;;;;;;0.77;0.77;;;;;;;7.58;100.00;97009.53;4166349;28;20200;-49
2024/01/02 06:19:05;;;;;;;0.82;0.82;;;;;;;7.60;100.00;97018.25;4164293;28;20322;-49
2024/01/02 06:21:07;;;;;;;0.90;0.90;;;;;;;7.56;100.00;97020.69;4170246;28;20209;-49
2024/01/02 06:23:09;;;;;;;0.60;0.60;;;;;;;7.56;100.00;97033.50;4169976;28;20213;-49
2024/01/02 06:25:11;;;;;;;0.50;0.50;;;;;;;7.57;100.00;97037.84;4166880;28;20258;-49
2024/01/02 06:27:13;;;;;;;0.70;0.70;;;;;;;7.56;100.00;97028.06;4165204;28;20732;-49
2024/01/02 06:29:14;;;;;;;0.60;0.60;;;;;;;7.60;100.00;97034.59;4167612;28;20597;-50
2024/01/02 06:31:20;;;;;;;0.65;0.65;;;;;;;7.64;100.00;97041.13;4171588;28;20204;-48
2024/01/02 06:33:22;;;;;;;0.70;0.70;;;;;;;7.62;100.00;97046.03;4202534;28;20285;-49
2024/01/02 06:35:24;;;;;;;0.80;0.80;;;;;;;7.65;100.00;97048.22;4172430;28;20203;-50
2024/01/02 06:37:26;;;;;;;0.80;0.80;;;;;;;7.59;100.00;97049.28;4172506;28;20204;-50
2024/01/02 06:39:27;;;;;;;0.73;0.73;;;;;;;7.57;100.00;97054.19;4172385;28;20224;-49
2024/01/02 06:41:29;;;;;;;0.57;0.57;;;;;;;7.56;100.00;97056.06;4168376;28;20215;-49
2024/01/02 06:43:31;;;;;;;1.05;0.95;;;;;;;7.61;100.00;97052.56;4156237;28;20205;-49
2024/01/02 06:45:33;;;;;;;0.73;0.73;;;;;;;7.57;100.00;97040.56;4174236;28;20215;-49
2024/01/02 06:47:34;;;;;;;0.60;0.60;;;;;;;7.57;100.00;97040.56;4170055;28;20216;-49
2024/01/02 06:49:36;;;;;;;0.70;0.70;;;;;;;7.52;100.00;97044.09;4181150;28;20353;-50
2024/01/02 06:51:38;;;;;;;0.80;0.80;;;;;;;7.50;100.00;97045.44;4174611;28;20216;-50
2024/01/02 06:53:40;;;;;;;0.90;0.90;;;;;;;7.51;100.00;97057.97;4174321;28;20644;-49
2024/01/02 06:55:42;;;;;;;0.77;0.77;;;;;;;7.54;100.00;97057.41;4173258;28;20227;-50
2024/01/02 06:57:43;;;;;;;0.80;0.80;;;;;;;7.58;100.00;97053.94;4170866;28;20217;-53
2024/01/02 06:59:46;;;;;;;0.70;0.70;;;;;;;7.59;100.00;97079.22;4155281;28;20225;-51
2024/01/02 07:01:48;;;;;;;0.70;0.70;;;;;;;7.62;100.00;97059.66;4169792;28;20218;-51
2024/01/02 07:03:50;;;;;;;0.90;0.90;;;;;;;7.60;100.00;97062.63;4165603;28;20273;-50
2024/01/02 07:05:51;;;;;;;1.25;1.25;;;;;;;7.61;100.00;97058.81;4175091;28;20599;-51
2024/01/02 07:07:53;;;;;;;0.77;0.77;;;;;;;7.61;100.00;97077.06;4160438;28;20295;-50
2024/01/02 07:09:55;;;;;;;0.82;0.82;;;;;;;7.60;100.00;97053.63;4174552;28;20638;-51
2024/01/02 07:11:57;;;;;;;0.80;0.80;;;;;;;7.56;100.00;97072.41;4170314;28;20216;-51
2024/01/02 07:13:59;;;;;;;0.70;0.70;;;;;;;7.57;100.00;97074.03;4170064;28;20407;-51
2024/01/02 07:16:02;;;;;;;0.85;0.85;;;;;;;7.60;100.00;97089.00;4167714;28;20259;-51
2024/01/02 07:18:03;;;;;;;1.77;0.80;;;;;;;7.61;100.00;97088.75;4166954;28;20208;-50
2024/01/02 07:20:07;;;;;;;0.70;0.70;;;;;;;7.59;100.00;97087.38;4171053;28;20224;-49
2024/01/02 07:22:09;;;;;;;0.90;0.90;;;;;;;7.58;100.00;97085.75;4166761;28;20211;-52
2024/01/02 07:24:15;;;;;;;1.00;1.00;;;;;;;7.57;100.00;97100.44;4168220;28;20255;-51
2024/01/02 07:26:17;;;;;;;0.70;0.70;;;;;;;7.60;100.00;97089.00;4171723;28;20623;-52
2024/01/02 07:28:19;;;;;;;0.60;0.60;;;;;;;7.56;100.00;97090.66;4174460;28;20211;-51
2024/01/02 07:30:21;;;;;;;0.77;0.77;;;;;;;7.57;100.00;97092.28;4170773;28;20220;-50
2024/01/02 07:32:22;;;;;;;0.98;0.98;;;;;;;7.53;100.00;97104.78;4168055;28;20334;-50
2024/01/02 07:34:24;;;;;;;0.68;0.68;;;;;;;7.54;100.00;97107.25;4169136;28;20213;-50
2024/01/02 07:36:26;;;;;;;0.60;0.60;;;;;;;7.58;100.00;97112.97;4165819;28;20256;-50
2024/01/02 07:38:28;;;;;;;0.75;0.75;;;;;;;7.55;100.00;97118.97;4168271;28;20677;-50
2024/01/02 07:40:30;;;;;;;0.80;0.80;;;;;;;7.54;100.00;97103.69;4165237;28;20239;-51
2024/01/02 07:42:31;;;;;;;0.60;0.60;;;;;;;7.55;100.00;97119.75;4175088;28;20261;-50
2024/01/02 07:44:33;;;;;;;0.85;0.85;;;;;;;7.57;100.00;97119.50;4156874;28;20611;-50
2024/01/02 07:46:35;;;;;;;0.68;0.68;;;;;;;7.53;100.00;97134.72;4169517;28;20220;-51
2024/01/02 07:48:37;;;;;;;0.70;0.70;;;;;;;7.54;100.00;97122.72;4171201;28;20211;-50
2024/01/02 07:50:39;;;;;;;0.77;0.77;;;;;;;7.55;100.00;97129.84;4168420;28;20258;-50
2024/01/02 07:52:40;;;;;;;0.52;0.52;;;;;;;7.55;100.00;97129.84;4173076;28;20307;-49
2024/01/02 07:54:42;;;;;;;0.77;0.77;;;;;;;7.57;100.00;97117.56;4167728;28;20208;-49
2024/01/02 07:56:44;;;;;;;0.68;0.68;;;;;;;7.53;100.00;97121.09;4168214;28;21027;-50
2024/01/02 07:58:48;;;;;;;0.85;0.85;;;;;;;7.54;100.00;97128.19;4170475;28;20267;-51
2024/01/02 08:00:50;;;;;;;0.88;0.88;;;;;;;7.55;100.00;97118.97;4168059;28;20885;-50
2024/01/02 08:02:52;;;;;;;0.52;0.52;;;;;;;7.56;100.00;97131.47;4174433;28;20236;-50
2024/01/02 08:04:53;;;;;;;0.60;0.60;;;;;;;7.52;100.00;97136.63;4166616;28;20243;-50
2024/01/02 08:06:57;;;;;;;0.90;0.90;;;;;;;7.50;100.00;97125.16;4171006;28;20216;-49
2024/01/02 08:09:00;;;;;;;1.20;1.00;;;;;;;7.47;100.00;97139.31;4171767;28;20695;-50
2024/01/02 08:11:04;;;;;;;1.13;1.10;;;;;;;7.52;100.00;97122.19;4175684;28;20691;-50
2024/01/02 08:13:06;;;;;;;0.70;0.70;;;;;;;7.53;100.00;97121.09;4168184;28;20240;-50
2024/01/02 08:15:08;;;;;;;1.20;1.20;;;;;;;7.50;100.00;97119.72;4168786;28;20208;-49
2024/01/02 08:17:10;;;;;;;0.70;0.70;;;;;;;7.49;100.00;97126.25;4169507;28;20219;-52
2024/01/02 08:19:13;;;;;;;0.70;0.70;;;;;;;7.48;100.00;97116.47;4166365;28;20322;-51
2024/01/02 08:21:15;;;;;;;0.65;0.65;;;;;;;7.50;100.00;97129.81;4177692;28;20295;-51
2024/01/02 08:23:17;;;;;;;0.70;0.70;;;;;;;7.49;100.00;97120.00;4169876;28;20207;-50
2024/01/02 08:25:23;;;;;;;0.93;0.93;;;;;;;7.48;100.00;97135.50;4167548;28;20208;-51
2024/01/02 08:27:25;;;;;;;0.80;0.80;;;;;;;7.47;100.00;97128.44;4168784;28;20673;-50
2024/01/02 08:29:28;;;;;;;0.90;0.90;;;;;;;7.50;100.00;97127.88;4175863;28;20224;-50
2024/01/02 08:31:30;;;;;;;1.08;1.08;;;;;;;7.50;100.00;97132.53;4167952;28;20223;-51
2024/01/02 08:33:31;;;;;;;0.80;0.80;;;;;;;7.50;100.00;97136.06;4175172;28;20265;-50
2024/01/02 08:35:33;;;;;;;0.70;0.70;;;;;;;7.53;100.00;97132.81;4174664;28;20215;-50
2024/01/02 08:37:35;;;;;;;0.70;0.70;;;;;;;7.54;100.00;97133.63;4169972;28;20248;-49
2024/01/02 08:39:37;;;;;;;0.70;0.70;;;;;;;7.53;100.00;97132.00;4175102;28;20301;-49
2024/01/02 08:41:39;;;;;;;0.80;0.80;;;;;;;7.54;100.00;97141.78;4166641;28;20267;-50
2024/01/02 08:43:40;;;;;;;0.80;0.80;;;;;;;7.55;100.00;97151.63;4167312;28;20208;-49
2024/01/02 08:45:43;;;;;;;0.63;0.63;;;;;;;7.53;100.00;97146.44;4168790;28;21018;-49
2024/01/02 08:47:46;;;;;;;0.63;0.63;;;;;;;7.60;100.00;97151.63;4168831;28;20215;-49
2024/01/02 08:49:48;;;;;;;0.50;0.50;;;;;;;7.60;100.00;97160.63;4169712;28;20232;-50
2024/01/02 08:51:50;;;;;;;0.80;0.80;;;;;;;7.64;100.00;97160.91;4176657;28;20220;-49
2024/01/02 08:53:51;;;;;;;0.70;0.70;;;;;;;7.65;100.00;97151.66;4169737;28;20236;-50
2024/01/02 08:55:53;;;;;;;0.80;0.80;;;;;;;7.61;100.00;97150.56;4168444;28;20728;-50
2024/01/02 08:57:55;;;;;;;0.85;0.85;;;;;;;7.61;100.00;97153.28;4170189;28;20262;-50
2024/01/02 08:59:57;;;;;;;0.60;0.60;;;;;;;7.62;100.00;97142.09;4170276;28;20746;-49
2024/01/02 09:01:59;;;;;;;0.68;0.68;;;;;;;7.62;100.00;97139.38;4186728;28;20212;-50
2024/01/02 09:04:01;;;;;;;0.57;0.57;;;;;;;7.61;100.00;97142.41;4184213;28;20298;-49
2024/01/02 09:06:07;;;;;;;0.63;0.63;;;;;;;7.63;100.00;97153.81;4168902;28;20219;-50
2024/01/02 09:08:10;;;;;;;1.02;0.80;;;;;;;7.63;100.00;97148.38;4167202;28;20211;-49
2024/01/02 09:10:13;;;;;;;0.70;0.70;;;;;;;7.63;100.00;97148.38;4169484;28;20278;-49
2024/01/02 09:12:15;;;;;;;0.90;0.90;;;;;;;7.65;100.00;97141.59;4174501;28;20682;-49
2024/01/02 09:14:17;;;;;;;0.95;0.95;;;;;;;7.65;100.00;97143.50;4167895;28;20223;-49
2024/01/02 09:16:18;;;;;;;0.70;0.70;;;;;;;7.64;100.00;97144.56;4164998;28;20208;-49
2024/01/02 09:18:20;;;;;;;0.80;0.80;;;;;;;7.71;100.00;97131.53;4166909;28;20267;-49
2024/01/02 09:20:22;;;;;;;0.70;0.70;;;;;;;7.66;100.00;97136.94;4162213;28;20294;-50
2024/01/02 09:22:24;;;;;;;0.80;0.80;;;;;;;7.67;100.00;97138.59;4168751;28;20235;-50
2024/01/02 09:24:26;;;;;;;0.60;0.60;;;;;;;7.71;100.00;97145.16;4170505;28;20208;-50
2024/01/02 09:26:30;;;;;;;0.57;0.57;;;;;;;7.70;100.00;97143.53;4169824;28;20226;-49
2024/01/02 09:28:33;;;;;;;1.00;1.00;;;;;;;7.73;100.00;97146.53;4177461;28;20294;-49
2024/01/02 09:30:34;;;;;;;0.70;0.70;;;;;;;7.72;100.00;97135.91;4173441;28;20208;-49
2024/01/02 09:32:37;;;;;;;0.60;0.60;;;;;;;7.73;100.00;97148.41;4171596;28;20212;-49
2024/01/02 09:34:40;;;;;;;0.95;0.95;;;;;;;7.73;100.00;97149.25;4168563;28;20744;-49